CYFO

Flin Flon Airport

Flin Flon, Manitoba, Canada
METAR CYFO 151316Z 06005KT 6SM -SN BR OVC005 M15/M17 A2979 RMK ST8 SLP118
Observed Flight Rules
Dec-15 @ 13:16 UTC (52 minutes ago) Instrument Flight Rules
Wind Visibility Clouds Conditions
60° at 5 knots 6 miles
  • Overcast at 500' AGL
  • Light Snow
  • Mist
Temperatures Readings
Current -15°C / 5°F
Dewpoint -17°C / 1°F
Humidity 85%
Altimeter 29.79" Hg
Pressure 1011.8 hPa
Elevation 304
METAR CYFO 151316Z 06005KT 6SM -SN BR OVC005 M15/M17 A2979 RMK ST8 SLP118
Observed Flight Rules
Dec-15 @ 13:16 UTC
(52 minutes ago)
IFR
Wind Visibility
60° at 5 knots 6 miles
Clouds
  • Overcast at 500' AGL
Conditions
  • Light Snow
  • Mist
Temperature Dewpoint
-15°C / 5°F -17°C / 1°F
Humidity Altimeter Pressure
85% 29.79" Hg 1011.8 hPa